Tropical Cyclones
[Index]
Main Index Home Page Stock Weather Photos Extreme Storms Discussion Storm News and Storm Chasing Reports Tropical Cyclones / Hurricanes / Typhoons Weather Data and Links Wild Fires / Bushfires Weather Observation Techniques Weather Picture Catalogue Tornado Pictures and Reports Stock Video Footage and DVDs for sale
Season 1997-1998 Tropical Cyclone NATHAN Track Map
Season 1997-1998 Summaries: [BoM-AU] [JTWC-AU] [JTWC-SIO] [JTWC-SPAC] [JTWC-SH]
<<- Previous TC | JTWC 1997-1998 Season | Next TC ->>

click for intensity scale information  Lat/long Grid: Show Hide

 Date Labels: Show Hide

Joint Typhoon Warning Centre Cyclone Data

Name: NATHAN

19 Mar 1998 12:00 UTC to 31 Mar 1998 00:00 UTC

    date/time    lat    long     hPa   cat  kts
1998-03-19 12    9.8   145.3                  20          
1998-03-19 18   10.3   144.8                  25          
1998-03-20 00   10.6   144.5                  25          
1998-03-20 06   10.8   144.2                  25          
1998-03-20 12   11.0   143.9                  25          
1998-03-20 18   11.2   143.7                  25          
1998-03-21 00   11.5   143.8                  35          
1998-03-21 06   11.6   144.1                  35          
1998-03-21 12   11.6   144.5            1     40          
1998-03-21 18   11.8   144.9            1     40          
1998-03-22 00   11.9   145.2            1     40          
1998-03-22 06   12.2   145.5            1     40          
1998-03-22 12   12.6   145.6            1     40          
1998-03-22 18   13.0   145.6            1     40          
1998-03-23 00   13.4   145.6            2     55          
1998-03-23 06   13.8   145.6            2     55          
1998-03-23 12   14.3   145.8            2     65          
1998-03-23 18   14.4   146.3            2     65          
1998-03-24 00   14.4   147.0            2     60          
1998-03-24 06   14.2   147.8            2     55          
1998-03-24 12   13.8   148.6            2     55          
1998-03-24 18   13.5   149.9            2     55          
1998-03-25 00   13.2   151.7            1     50          
1998-03-25 06   13.1   153.4            1     50          
1998-03-25 12   13.1   154.9            1     50          
1998-03-25 18   13.2   156.0            1     50          
1998-03-26 00   13.3   156.7            1     45          
1998-03-26 06   13.5   157.5            1     40          
1998-03-26 12   13.8   158.2            1     40          
1998-03-26 18   14.3   158.6            1     40          
1998-03-27 00   14.9   158.7            1     40          
1998-03-27 06   15.4   158.7            1     40          
1998-03-27 12   15.8   158.6            1     40          
1998-03-27 18   16.0   158.3            1     40          
1998-03-28 00   16.3   157.9            1     40          
1998-03-28 06   16.6   157.5            1     40          
1998-03-28 12   16.6   157.0            1     40          
1998-03-28 18   16.3   156.2            1     40          
1998-03-29 00   16.1   155.1            1     40          
1998-03-29 06   15.7   154.0            1     40          
1998-03-29 12   15.2   152.9            1     40          
1998-03-29 18   15.1   152.0                  35          
1998-03-30 00   15.1   151.0                  35          
1998-03-30 06   15.0   150.0                  35          
1998-03-30 12   14.9   148.5                  35          
1998-03-30 18   14.5   147.1                  35          
1998-03-31 00   13.5   144.9                  30          
Winds are 1-min average.

Tropical cyclone tracks developed by Michael Bath using data from the Joint Typhoon Warning Centre Best Tracks and Google Maps.


[Australian Severe Weather index] [Copyright Notice] [Email Contacts] [Search This Site] [Privacy Policy]
Document: tropical_cyclone_nathan.htm Updated: 18 September 2016